• Join FlightAware (Why Join?)
  • Login
  • US Flag 
07:23PM EDT


 

Airport Tracker/Info


-or-


 

Live Flight TrackerFlight Track Log ✈ AWE2690 ✈ 26-Oct-2013 ✈ KCLT - KIND

Flight Track Log - Related Links

Times and Time Zones

All times are in EDT time to prevent confusion due to time zone crossing. See the AWE2690 flight status page for this flight to view local times or setup timezone preferences in your user account.

Time Position Orientation Groundspeed Altitude Reporting Facility
EDT Latitude Longitude Course Direction KTS MPH feet Rate Location/Type
02:57PM 35.1869 -80.9511 North 163 188 1,500  Level Atlanta Center
02:58PM 35.1369 -80.9556 184° South 205 236 3,300 2,100 Climbing Atlanta Center
02:59PM 35.0925 -81.0106 225° Southwest 264 304 5,800 2,100 Climbing Atlanta Center
03:00PM 35.5226 -80.9356 13° North  Level FlightAware Approximate
03:00PM 35.0947 -81.1042 272° West 264 304 7,900  Level Atlanta Center
03:01PM 35.6441 -80.8998 13° North  Level FlightAware Approximate
03:01PM 35.1131 -81.1697 289° West 259 298 9,800  Level Atlanta Center
03:01PM 35.1194 -81.1797 308° West 266 306 10,100 1,980 Climbing Atlanta Center
03:02PM 35.7671 -80.8750 North  Level FlightAware Approximate
03:02PM 35.1664 -81.2236 323° Northwest 303 349 11,800  Level Atlanta Center
03:02PM 35.1811 -81.2231 North 306 352 11,900 1,980 Climbing Atlanta Center
03:03PM 35.2697 -81.1794 22° Northeast 347 399 13,800 1,740 Climbing Atlanta Center
03:03PM 35.2842 -81.1714 24° Northeast 368 423 13,900 180 Climbing Atlanta Center
03:04PM 35.3519 -81.1231 30° Northeast 378 435 14,000 780 Climbing Atlanta Center
03:05PM 35.4403 -81.0639 29° Northeast 378 435 15,400 1,620 Climbing Atlanta Center
03:06PM 35.5383 -81.0656 359° North 351 404 17,300 1,800 Climbing Atlanta Center
03:07PM 35.6253 -81.1236 332° Northwest 337 388 19,000 1,680 Climbing Atlanta Center
03:08PM 35.7058 -81.1847 328° Northwest 359 413 20,700 1,680 Climbing Atlanta Center
03:09PM 35.7931 -81.2483 329° Northwest 370 426 22,400 1,560 Climbing Atlanta Center
03:10PM 35.8639 -81.3381 314° West 363 418 23,900 780 Climbing Atlanta Center
03:11PM 35.9225 -81.4464 304° West 373 429 24,000  Climbing Atlanta Center
03:12PM 35.9894 -81.5647 305° West 386 444 24,000  Level Atlanta Center
03:13PM 36.0542 -81.6758 306° West 397 457 24,000  Level Atlanta Center
03:14PM 36.1150 -81.7922 303° West 405 466 24,000  Level Atlanta Center
03:15PM 36.1817 -81.9036 307° West 405 466 24,000  Level Atlanta Center
03:16PM 36.2419 -82.0178 303° West 405 466 24,000  Level Atlanta Center
03:17PM 36.3019 -82.1272 304° West 399 459 24,000  Level Atlanta Center
03:18PM 36.3642 -82.2417 304° West 399 459 24,000  Level Atlanta Center
03:19PM 36.4306 -82.3511 307° West 399 459 24,000  Level Atlanta Center
03:20PM 36.5006 -82.4556 310° West 399 459 24,000  Level Atlanta Center
03:21PM 36.5708 -82.5575 311° West 389 448 24,000  Level Atlanta Center
03:22PM 36.6428 -82.6622 311° West 395 455 24,000  Level Atlanta Center
03:23PM 36.7311 -82.7867 312° West 399 459 24,000  Level Indianapolis Center
03:24PM 36.8028 -82.8933 310° West 397 457 24,000  Level Indianapolis Center
03:25PM 36.8772 -83.0025 310° West 399 459 24,000  Level Indianapolis Center
03:27PM 37.0217 -83.2156 310° West 395 455 24,000  Level Indianapolis Center
03:28PM 37.0919 -83.3214 310° West 394 453 24,000  Level Indianapolis Center
03:29PM 37.1631 -83.4267 310° West 395 455 24,000  Level Indianapolis Center
03:30PM 37.2333 -83.5328 310° West 395 455 24,000  Level Indianapolis Center
03:31PM 37.3047 -83.6392 310° West 396 456 24,000  Level Indianapolis Center
03:32PM 37.3858 -83.7614 310° West 391 450 24,000  Level Indianapolis Center
03:33PM 37.4564 -83.8681 310° West 394 453 24,000  Level Indianapolis Center
03:34PM 37.5256 -83.9736 310° West 391 450 24,000  Level Indianapolis Center
03:35PM 37.5947 -84.0797 309° West 391 450 24,000  Level Indianapolis Center
03:36PM 37.6644 -84.1875 309° West 395 455 24,000  Level Indianapolis Center
03:37PM 37.7353 -84.2950 310° West 395 455 24,000  Level Indianapolis Center
03:38PM 37.8169 -84.4214 309° West 396 456 24,000  Level Indianapolis Center
03:39PM 37.8872 -84.5294 310° West 396 456 24,000  Level Indianapolis Center
03:40PM 37.9567 -84.6389 309° West 397 457 24,000  Level Indianapolis Center
03:41PM 38.0261 -84.7475 309° West 395 455 24,000  Level Indianapolis Center
03:42PM 38.0961 -84.8558 309° West 396 456 24,000  Level Indianapolis Center
03:43PM 38.1672 -84.9642 310° West 397 457 24,000  Level Indianapolis Center
03:44PM 38.2364 -85.0733 309° West 395 455 24,000  Level Indianapolis Center
03:45PM 38.3161 -85.2019 308° West 393 452 24,000  Level Indianapolis Center
03:47PM 38.3778 -85.2981 309° West 396 456 24,000  Level Indianapolis Center
03:48PM 38.4461 -85.4081 308° West 394 453 24,000 -420 Level Indianapolis Center
03:49PM 38.5150 -85.5169 309° West 394 453 23,200 -1,200 Descending Indianapolis Center
03:50PM 38.6075 -85.6336 315° West 400 460 21,600 -1,620 Descending Indianapolis Center
03:51PM 38.7128 -85.6569 350° North 418 481 19,900 -1,740 Descending Indianapolis Center
03:52PM 38.8233 -85.6764 352° North 407 468 18,100 -1,740 Descending Indianapolis Center
03:53PM 38.9275 -85.6947 352° North 384 442 16,400 -1,860 Descending Indianapolis Center
03:54PM 39.0494 -85.7181 352° North 374 430 14,300 -1,320 Descending Indianapolis Center
03:55PM 39.1503 -85.7361 352° North 369 425 13,700 -960 Descending Indianapolis Center
03:56PM 39.2453 -85.7528 352° North 352 405 12,400 -1,320 Descending Indianapolis Center
03:57PM 39.3281 -85.7844 344° North 318 366 11,000 -1,200 Descending Indianapolis Center
03:58PM 39.3831 -85.8508 317° Northwest 278 320 10,000 -1,080 Descending Indianapolis Center
03:59PM 39.4522 -85.8717 347° North 263 303 8,800 -1,440 Descending Indianapolis Center
04:00PM 39.5161 -85.9039 339° North 251 289 7,100 -1,800 Descending Indianapolis Center
04:01PM 39.5914 -85.9442 338° Northwest 247 284 5,200 -1,800 Descending Indianapolis Center
04:02PM 39.6539 -85.9839 334° Northwest 249 287 3,500 -1,080 Descending Indianapolis Center
04:03PM 39.7131 -86.0247 332° Northwest 247 284 3,000 -300 Descending Indianapolis Center
04:04PM 39.7650 -86.0606 332° Northwest 230 265 3,000  Level Indianapolis Center
04:05PM 39.8089 -86.1092 320° Northwest 223 257 3,000 -60 Level Indianapolis Center
04:06PM 39.7997 -86.1672 258° West 189 217 2,900 -480 Descending Indianapolis Center
04:07PM 39.7686 -86.2172 231° Southwest 161 185 2,100 -780 Descending Indianapolis Center
04:08PM 39.7411 -86.2519 224° Southwest 147 169 1,400 -660 Descending Indianapolis Center
04:09PM 39.7147 -86.2864 225° Southwest 137 158 800 -300 Descending Indianapolis Center
04:10PM 39.7061 -86.2983 227° Southwest 74 85 800  Level Indianapolis Center
04:11PM 39.7117 -86.2939 32° Northeast 37 43 800  Level Indianapolis Center
04:12PM 39.7158 -86.2914 25° Northeast 26 30 800  Level Indianapolis Center
04:13PM 39.7172 -86.2953 295° West 16 18 800  Level Indianapolis Center
04:14PM 39.7161 -86.2997 252° West 15 17 800  Level Indianapolis Center